Time;durP1;ratioP1;P1;durP2;ratioP2;P2;SDS_P1;SDS_P2;PMS_P1;PMS_P2;Temp;Humidity;BMP_temperature;BMP_pressure;BME280_temperature;BME280_humidity;BME280_pressure;Samples;Min_cycle;Max_cycle;Signal;HPM_P1;HPM_P2
2021/01/25 00:00:24;;;;;;;;;;;;;;;17.99;62.25;99273.81;5053619;28;1443;-63
2021/01/25 00:02:49;;;;;;;;;;;;;;;17.96;62.41;99274.97;5054267;28;1491;-61
2021/01/25 00:05:15;;;;;;;;;;;;;;;17.96;62.49;99274.13;5054081;28;1396;-60
2021/01/25 00:07:40;;;;;;;;;;;;;;;17.95;61.75;99262.63;5054261;28;1468;-61
2021/01/25 00:10:06;;;;;;;;;;;;;;;17.89;62.56;99256.09;5054299;28;1408;-61
2021/01/25 00:12:32;;;;;;;;;;;;;;;17.92;62.58;99251.41;5053807;28;1547;-63
2021/01/25 00:14:57;;;;;;;;;;;;;;;17.91;61.64;99255.09;5054224;28;1389;-63
2021/01/25 00:17:22;;;;;;;;;;;;;;;17.87;62.11;99241.22;5053610;28;1906;-63
2021/01/25 00:19:48;;;;;;;;;;;;;;;17.90;62.24;99254.25;5053774;28;1431;-60
2021/01/25 00:22:13;;;;;;;;;;;;;;;17.88;61.70;99250.91;5054247;28;1400;-60
2021/01/25 00:24:39;;;;;;;;;;;;;;;17.86;61.96;99243.03;5053863;28;1550;-63
2021/01/25 00:27:05;;;;;;;;;;;;;;;17.84;61.02;99229.00;5053882;28;1468;-60
2021/01/25 00:29:30;;;;;;;;;;;;;;;17.87;61.24;99247.38;5053685;28;1463;-60
2021/01/25 00:31:55;;;;;;;;;;;;;;;17.83;61.12;99221.97;5053671;28;1433;-60
2021/01/25 00:34:21;;;;;;;;;;;;;;;17.81;61.66;99217.78;5053559;28;1413;-63
2021/01/25 00:36:47;;;;;;;;;;;;;;;17.77;60.92;99227.97;5053985;28;1951;-60
2021/01/25 00:39:12;;;;;;;;;;;;;;;17.79;61.32;99225.13;5054261;28;1439;-64
2021/01/25 00:41:37;;;;;;;;;;;;;;;17.79;61.24;99209.91;5054077;28;1377;-60
2021/01/25 00:44:03;;;;;;;;;;;;;;;17.76;61.04;99206.72;5054008;28;1384;-60
2021/01/25 00:46:28;;;;;;;;;;;;;;;17.72;60.80;99203.53;5053208;28;1440;-63
2021/01/25 00:48:53;;;;;;;;;;;;;;;17.75;60.97;99218.44;5053898;28;1417;-63
2021/01/25 00:51:19;;;;;;;;;;;;;;;17.73;60.62;99213.25;5036006;28;1407;-63
2021/01/25 00:53:44;;;;;;;;;;;;;;;17.73;61.00;99218.59;5053890;28;1409;-63
2021/01/25 00:56:13;;;;;;;;;;;;;;;17.73;60.24;99221.28;5053607;28;1878;-60
2021/01/25 00:58:39;;;;;;;;;;;;;;;17.72;60.58;99214.25;5051837;28;1372;-60
2021/01/25 01:01:04;;;;;;;;;;;;;;;17.70;60.18;99202.88;5053608;28;1435;-60
2021/01/25 01:03:30;;;;;;;;;;;;;;;17.68;59.88;99196.84;5053874;28;1438;-63
2021/01/25 01:05:55;;;;;;;;;;;;;;;17.67;59.66;99187.19;5055215;28;1417;-60
2021/01/25 01:08:20;;;;;;;;;;;;;;;17.67;60.57;99179.16;5056998;28;1372;-60
2021/01/25 01:10:46;;;;;;;;;;;;;;;17.64;60.55;99174.13;5057278;28;1423;-60
2021/01/25 01:13:11;;;;;;;;;;;;;;;17.66;59.95;99166.78;5057333;28;1409;-62
2021/01/25 01:15:37;;;;;;;;;;;;;;;17.62;59.31;99166.28;5057314;28;1968;-63
2021/01/25 01:18:02;;;;;;;;;;;;;;;17.63;59.40;99156.44;5057351;28;1210;-63
2021/01/25 01:20:27;;;;;;;;;;;;;;;17.60;59.63;99151.41;5056097;28;1428;-63
2021/01/25 01:22:53;;;;;;;;;;;;;;;17.59;59.88;99139.06;5039569;28;1385;-63
2021/01/25 01:25:18;;;;;;;;;;;;;;;17.57;60.25;99133.88;5056830;28;1408;-62
2021/01/25 01:27:43;;;;;;;;;;;;;;;17.59;59.90;99133.72;5056726;28;1460;-60
2021/01/25 01:30:09;;;;;;;;;;;;;;;17.59;59.98;99117.69;5055517;28;1432;-63
2021/01/25 01:32:35;;;;;;;;;;;;;;;17.62;59.79;99120.00;5056698;28;1333;-63
2021/01/25 01:35:00;;;;;;;;;;;;;;;17.60;59.59;99117.50;5056393;28;1369;-60
2021/01/25 01:37:26;;;;;;;;;;;;;;;17.61;59.28;99115.69;5056351;28;1890;-63
2021/01/25 01:39:51;;;;;;;;;;;;;;;17.59;59.02;99107.81;5056380;28;1559;-60
2021/01/25 01:42:17;;;;;;;;;;;;;;;17.58;59.57;99094.63;5055290;28;1436;-63
2021/01/25 01:44:43;;;;;;;;;;;;;;;17.57;58.35;99092.97;5055681;28;1467;-63
2021/01/25 01:47:09;;;;;;;;;;;;;;;17.55;58.70;99073.56;5056688;28;1408;-60
2021/01/25 01:49:34;;;;;;;;;;;;;;;17.55;59.26;99058.38;5038599;28;1436;-63
2021/01/25 01:51:59;;;;;;;;;;;;;;;17.55;59.61;99052.16;5038962;28;1397;-63
2021/01/25 01:54:25;;;;;;;;;;;;;;;17.54;58.26;99037.16;5056154;28;1421;-60
2021/01/25 01:56:50;;;;;;;;;;;;;;;17.53;58.48;99040.81;5056370;28;1890;-63
2021/01/25 01:59:15;;;;;;;;;;;;;;;17.53;58.28;99032.78;5056297;28;1409;-64
2021/01/25 02:01:41;;;;;;;;;;;;;;;17.48;58.54;99023.44;5055968;28;1467;-63
2021/01/25 02:04:09;;;;;;;;;;;;;;;17.50;58.26;99018.78;5055608;28;1474;-64
2021/01/25 02:06:34;;;;;;;;;;;;;;;17.53;58.49;99011.41;5038411;28;1429;-60
2021/01/25 02:09:01;;;;;;;;;;;;;;;17.51;58.66;98998.25;5055898;28;1364;-63
2021/01/25 02:11:28;;;;;;;;;;;;;;;17.53;58.24;98993.56;5055963;28;1451;-63
2021/01/25 02:13:54;;;;;;;;;;;;;;;17.50;58.88;98985.88;5036821;28;1494;-62
2021/01/25 02:16:19;;;;;;;;;;;;;;;17.52;58.97;98977.69;5033976;28;1973;-60
2021/01/25 02:18:44;;;;;;;;;;;;;;;17.50;57.98;98959.97;5044670;28;1576;-60
2021/01/25 02:21:11;;;;;;;;;;;;;;;17.48;58.28;98961.97;5056152;28;1209;-63
2021/01/25 02:23:51;;;;;;;;;;;;;;;17.50;58.54;98954.63;5054824;28;1376;-60
2021/01/25 02:26:31;;;;;;;;;;;;;;;17.46;58.91;98973.84;5055782;28;1467;-63
2021/01/25 02:28:56;;;;;;;;;;;;;;;17.46;58.73;98947.13;5038313;28;1404;-60
2021/01/25 02:31:22;;;;;;;;;;;;;;;17.45;58.92;98948.97;5028979;28;1444;-63
2021/01/25 02:33:49;;;;;;;;;;;;;;;17.42;57.85;98943.97;5037834;28;1746;-63
2021/01/25 02:36:15;;;;;;;;;;;;;;;17.45;57.61;98940.97;5051619;28;1947;-60
2021/01/25 02:38:42;;;;;;;;;;;;;;;17.44;57.88;98933.94;5039302;28;1730;-60
2021/01/25 02:41:08;;;;;;;;;;;;;;;17.40;57.96;98916.56;5049351;28;1643;-64
2021/01/25 02:43:33;;;;;;;;;;;;;;;17.45;57.67;98927.59;5037150;28;1635;-61
2021/01/25 02:45:59;;;;;;;;;;;;;;;17.41;57.52;98912.91;5049643;28;1586;-62
2021/01/25 02:48:24;;;;;;;;;;;;;;;17.41;57.60;98918.25;5052396;28;1610;-60
2021/01/25 02:50:50;;;;;;;;;;;;;;;17.42;57.42;98919.09;5040484;28;1572;-63
2021/01/25 02:53:15;;;;;;;;;;;;;;;17.42;58.56;98922.59;5048047;28;1563;-63
2021/01/25 02:55:41;;;;;;;;;;;;;;;17.47;57.85;98938.13;5046639;28;1956;-60
2021/01/25 02:58:06;;;;;;;;;;;;;;;17.44;57.05;98928.59;5022997;28;1568;-60
2021/01/25 03:03:00;;;;;;;;;;;;;;;17.43;57.72;98928.78;5050928;28;1578;-53
2021/01/25 03:05:27;;;;;;;;;;;;;;;17.41;57.72;98920.09;5053416;28;1824;-53
2021/01/25 03:07:53;;;;;;;;;;;;;;;17.41;57.54;98922.78;5054763;28;1800;-55
2021/01/25 03:10:18;;;;;;;;;;;;;;;17.37;57.85;98924.94;5068636;22;3619;-63
2021/01/25 03:12:43;;;;;;;;;;;;;;;17.38;56.93;98926.59;5037982;28;1561;-63
2021/01/25 03:15:11;;;;;;;;;;;;;;;17.40;57.40;98931.78;5050423;28;1575;-60
2021/01/25 03:17:36;;;;;;;;;;;;;;;17.36;57.26;98936.63;5028221;28;1902;-63
2021/01/25 03:20:02;;;;;;;;;;;;;;;17.40;57.71;98919.25;5054736;28;1583;-60
2021/01/25 03:22:28;;;;;;;;;;;;;;;17.41;56.95;98918.25;5054422;28;1749;-63
2021/01/25 03:24:53;;;;;;;;;;;;;;;17.39;57.24;98917.59;5055064;28;1406;-60
2021/01/25 03:27:18;;;;;;;;;;;;;;;17.37;57.77;98903.56;5053613;28;1753;-60
2021/01/25 03:29:44;;;;;;;;;;;;;;;17.38;57.50;98891.88;5053461;28;1441;-63
2021/01/25 03:32:09;;;;;;;;;;;;;;;17.37;56.58;98903.56;5054524;28;1627;-62
2021/01/25 03:34:34;;;;;;;;;;;;;;;17.37;57.50;98892.88;5036074;28;1666;-63
2021/01/25 03:37:00;;;;;;;;;;;;;;;17.40;56.53;98891.69;5054230;28;1966;-61
2021/01/25 03:39:26;;;;;;;;;;;;;;;17.36;57.30;98883.19;5053814;28;1584;-60
2021/01/25 03:41:51;;;;;;;;;;;;;;;17.36;57.70;98896.53;5054420;28;1559;-63
2021/01/25 03:44:17;;;;;;;;;;;;;;;17.35;57.55;98897.56;5054123;28;1824;-63
2021/01/25 03:46:45;;;;;;;;;;;;;;;17.33;57.30;98888.03;5052624;28;1531;-60
2021/01/25 03:49:12;;;;;;;;;;;;;;;17.35;57.23;98892.22;5054313;28;1626;-63
2021/01/25 03:51:37;;;;;;;;;;;;;;;17.36;57.30;98893.06;5054486;28;1626;-63
2021/01/25 03:54:02;;;;;;;;;;;;;;;17.32;57.27;98886.38;5054526;28;1539;-63
2021/01/25 03:56:28;;;;;;;;;;;;;;;17.32;56.95;98876.53;5050128;28;1889;-64
2021/01/25 03:58:53;;;;;;;;;;;;;;;17.17;57.85;98886.22;5053018;28;1607;-63
2021/01/25 04:01:18;;;;;;;;;;;;;;;17.04;59.08;98865.41;5053491;28;1789;-60
2021/01/25 04:03:44;;;;;;;;;;;;;;;16.96;59.22;98884.09;5038566;28;1682;-60
2021/01/25 04:06:09;;;;;;;;;;;;;;;16.90;59.15;98869.56;5021635;28;1572;-60
2021/01/25 04:08:35;;;;;;;;;;;;;;;16.87;60.36;98860.09;5050478;28;1591;-63
2021/01/25 04:11:00;;;;;;;;;;;;;;;16.86;60.73;98852.22;5043488;28;1682;-60
2021/01/25 04:13:25;;;;;;;;;;;;;;;16.84;60.63;98868.41;5025267;28;1630;-63
2021/01/25 04:15:51;;;;;;;;;;;;;;;16.85;60.96;98874.56;5042752;28;1918;-61
2021/01/25 04:18:16;;;;;;;;;;;;;;;16.84;61.43;98879.09;5037372;28;1694;-61
2021/01/25 04:20:42;;;;;;;;;;;;;;;16.85;61.89;98883.44;5047489;28;1690;-60
2021/01/25 04:23:07;;;;;;;;;;;;;;;16.85;62.32;98885.25;5024357;28;1591;-62
2021/01/25 04:25:32;;;;;;;;;;;;;;;16.89;62.48;98881.25;5039720;28;1634;-60
2021/01/25 04:27:58;;;;;;;;;;;;;;;16.86;62.23;98884.25;5037351;28;10950;-63
2021/01/25 04:30:24;;;;;;;;;;;;;;;16.86;62.20;98881.59;5054088;28;1400;-64
2021/01/25 04:32:49;;;;;;;;;;;;;;;16.83;62.97;98882.78;5051599;28;1551;-64
2021/01/25 04:35:16;;;;;;;;;;;;;;;16.79;62.18;98885.88;5036207;28;1144;-64
2021/01/25 04:37:42;;;;;;;;;;;;;;;16.72;61.89;98906.25;5036703;28;1898;-64
2021/01/25 04:40:08;;;;;;;;;;;;;;;16.70;62.20;98899.25;5033358;28;1582;-64
2021/01/25 04:42:35;;;;;;;;;;;;;;;16.68;62.30;98900.41;5038506;28;1557;-64
2021/01/25 04:45:02;;;;;;;;;;;;;;;16.66;62.54;98887.22;5038149;28;797;-60
2021/01/25 04:47:28;;;;;;;;;;;;;;;16.64;62.48;98889.22;5030051;28;1674;-61
2021/01/25 04:49:53;;;;;;;;;;;;;;;16.63;63.08;98897.41;5056026;28;1559;-60
2021/01/25 04:52:19;;;;;;;;;;;;;;;16.61;61.34;98913.59;5040520;28;1736;-60
2021/01/25 04:54:46;;;;;;;;;;;;;;;16.59;61.43;98888.91;5020590;28;1163;-65
2021/01/25 04:57:11;;;;;;;;;;;;;;;16.57;61.33;98898.88;5039256;28;1890;-64
2021/01/25 04:59:36;;;;;;;;;;;;;;;16.57;61.98;98898.06;5038960;28;1583;-61
2021/01/25 05:02:02;;;;;;;;;;;;;;;16.54;62.33;98904.56;5037861;28;1391;-65
2021/01/25 05:04:28;;;;;;;;;;;;;;;16.51;62.11;98902.22;5050033;28;1543;-61
2021/01/25 05:06:53;;;;;;;;;;;;;;;16.50;61.62;98913.91;5056660;28;1555;-61
2021/01/25 05:09:18;;;;;;;;;;;;;;;16.54;61.50;98904.56;5038869;28;1725;-61
2021/01/25 05:11:44;;;;;;;;;;;;;;;16.50;61.69;98922.72;5037545;28;1618;-61
2021/01/25 05:14:09;;;;;;;;;;;;;;;16.47;60.72;98925.75;5021006;28;1663;-64
2021/01/25 05:16:34;;;;;;;;;;;;;;;16.51;60.86;98926.22;5021286;28;1983;-61
2021/01/25 05:19:01;;;;;;;;;;;;;;;16.45;61.00;98911.75;5021065;28;1549;-61
2021/01/25 05:21:40;;;;;;;;;;;;;;;16.57;60.76;98920.22;5031000;28;10177;-64
2021/01/25 05:24:06;;;;;;;;;;;;;;;16.56;60.43;98904.41;5039324;28;1784;-63
2021/01/25 05:26:32;;;;;;;;;;;;;;;16.55;60.59;98903.56;5057371;28;761;-63
2021/01/25 05:28:57;;;;;;;;;;;;;;;16.56;60.55;98921.25;5052848;28;1670;-64
2021/01/25 05:31:24;;;;;;;;;;;;;;;16.58;60.82;98921.91;5037940;28;1420;-63
2021/01/25 05:33:49;;;;;;;;;;;;;;;16.57;61.13;98906.06;5047604;28;1638;-63
2021/01/25 05:36:16;;;;;;;;;;;;;;;16.59;60.72;98907.59;5040976;28;1969;-61
2021/01/25 05:38:41;;;;;;;;;;;;;;;16.56;60.85;98896.41;5053336;28;1504;-61
2021/01/25 05:41:07;;;;;;;;;;;;;;;16.54;60.89;98907.25;5043253;28;1621;-64
2021/01/25 05:43:33;;;;;;;;;;;;;;;16.54;61.54;98882.41;5046739;28;1748;-63
2021/01/25 05:46:06;;;;;;;;;;;;;;;16.55;61.51;98903.56;5047496;28;1682;-64
2021/01/25 05:48:31;;;;;;;;;;;;;;;16.55;62.07;98916.91;5032859;28;1595;-62
2021/01/25 05:50:56;;;;;;;;;;;;;;;16.54;62.09;98914.41;5051237;28;1562;-61
2021/01/25 05:53:22;;;;;;;;;;;;;;;16.53;61.46;98913.56;5041075;28;1602;-63
2021/01/25 05:55:49;;;;;;;;;;;;;;;16.52;62.28;98911.91;5047076;28;1885;-61
2021/01/25 05:58:14;;;;;;;;;;;;;;;16.52;60.89;98905.75;5034606;28;1820;-61
2021/01/25 06:00:40;;;;;;;;;;;;;;;16.55;62.17;98916.91;5050873;28;1642;-64
2021/01/25 06:03:06;;;;;;;;;;;;;;;16.56;61.08;98921.25;5043784;28;1524;-61
2021/01/25 06:05:34;;;;;;;;;;;;;;;16.55;61.33;98922.22;5030089;28;1587;-61
2021/01/25 06:08:18;;;;;;;;;;;;;;;16.53;61.64;98913.56;5042576;28;1710;-63
2021/01/25 06:11:02;;;;;;;;;;;;;;;16.51;62.47;98902.22;5033809;28;1576;-63
2021/01/25 06:13:31;;;;;;;;;;;;;;;16.54;62.22;98925.09;5045622;28;1619;-61
2021/01/25 06:15:58;;;;;;;;;;;;;;;16.52;61.47;98924.41;5042800;28;1922;-62
2021/01/25 06:18:23;;;;;;;;;;;;;;;16.51;62.87;98920.91;5032998;28;1627;-64
2021/01/25 06:20:51;;;;;;;;;;;;;;;16.47;61.43;98915.06;5043724;28;1764;-61
2021/01/25 06:23:17;;;;;;;;;;;;;;;16.46;61.56;98918.72;5054398;28;1634;-64
2021/01/25 06:25:42;;;;;;;;;;;;;;;16.48;63.18;98913.22;5026711;28;1594;-63
2021/01/25 06:28:12;;;;;;;;;;;;;;;16.47;61.60;98907.06;5048841;28;1745;-61
2021/01/25 06:30:41;;;;;;;;;;;;;;;16.48;62.80;98914.06;5037626;28;1666;-65
2021/01/25 06:33:06;;;;;;;;;;;;;;;16.48;62.38;98906.06;5037293;28;1658;-61
2021/01/25 06:35:32;;;;;;;;;;;;;;;16.52;61.75;98901.22;5045941;28;1909;-62
2021/01/25 06:37:58;;;;;;;;;;;;;;;16.52;61.80;98911.91;5053566;28;1698;-66
2021/01/25 06:40:24;;;;;;;;;;;;;;;16.49;62.67;98906.88;5038578;28;1491;-66
2021/01/25 06:42:50;;;;;;;;;;;;;;;16.49;62.54;98898.88;5049561;28;1678;-63
2021/01/25 06:45:15;;;;;;;;;;;;;;;16.49;61.63;98914.88;5019417;28;1646;-63
2021/01/25 06:47:41;;;;;;;;;;;;;;;16.48;62.47;98911.41;5049184;28;1360;-61
2021/01/25 06:50:07;;;;;;;;;;;;;;;16.52;62.35;98929.75;5040576;28;1687;-61
2021/01/25 06:52:36;;;;;;;;;;;;;;;16.48;62.61;98924.72;5051682;28;1739;-63
2021/01/25 06:55:03;;;;;;;;;;;;;;;16.47;61.46;98919.56;5041570;28;1571;-63
2021/01/25 06:57:28;;;;;;;;;;;;;;;16.47;62.40;98919.56;5036854;28;1890;-62
2021/01/25 06:59:57;;;;;;;;;;;;;;;16.48;62.84;98915.91;5041935;28;1701;-63
2021/01/25 07:02:26;;;;;;;;;;;;;;;16.45;63.01;98921.56;5018046;28;1698;-64
2021/01/25 07:04:56;;;;;;;;;;;;;;;16.43;62.66;98936.88;5031919;28;1464;-62
2021/01/25 07:07:32;;;;;;;;;;;;;;;16.38;61.67;98933.91;5025665;28;1561;-63
2021/01/25 07:09:58;;;;;;;;;;;;;;;16.40;63.21;98939.91;5029332;28;1665;-62
2021/01/25 07:12:28;;;;;;;;;;;;;;;16.44;63.44;98928.72;5025465;28;1544;-62
2021/01/25 07:14:53;;;;;;;;;;;;;;;16.51;64.65;98936.91;5043250;28;1420;-61
2021/01/25 07:17:19;;;;;;;;;;;;;;;16.51;64.71;98939.56;5037024;28;1902;-64
2021/01/25 07:19:45;;;;;;;;;;;;;;;16.53;65.13;98937.56;5048461;28;1360;-62
2021/01/25 07:22:10;;;;;;;;;;;;;;;16.55;64.89;98948.09;5054083;28;1352;-64
2021/01/25 07:24:37;;;;;;;;;;;;;;;16.55;64.13;98942.75;5050289;28;1339;-65
2021/01/25 07:27:03;;;;;;;;;;;;;;;16.49;65.29;98931.75;5041990;28;1341;-64
2021/01/25 07:29:28;;;;;;;;;;;;;;;16.49;64.52;98946.91;5047304;28;1443;-64
2021/01/25 07:31:54;;;;;;;;;;;;;;;16.49;64.81;98952.25;5038283;28;1381;-64
2021/01/25 07:34:20;;;;;;;;;;;;;;;16.48;65.11;98954.09;5046130;28;1626;-63
2021/01/25 07:36:46;;;;;;;;;;;;;;;16.54;66.29;98963.28;5045792;28;1890;-61
2021/01/25 07:39:12;;;;;;;;;;;;;;;16.66;64.35;98972.63;5043591;28;1681;-61
2021/01/25 07:41:38;;;;;;;;;;;;;;;16.83;64.23;98973.53;5054021;28;1575;-64
2021/01/25 07:44:05;;;;;;;;;;;;;;;17.00;64.90;98979.72;5049803;28;1551;-63
2021/01/25 07:46:30;;;;;;;;;;;;;;;17.08;63.38;98987.72;5050248;28;1709;-63
2021/01/25 07:48:56;;;;;;;;;;;;;;;17.21;64.00;98978.38;5041599;28;1818;-61
2021/01/25 07:51:25;;;;;;;;;;;;;;;17.40;64.16;98969.19;5048824;28;1481;-61
2021/01/25 07:53:51;;;;;;;;;;;;;;;17.46;63.79;98955.97;5037240;28;1649;-62
2021/01/25 07:56:18;;;;;;;;;;;;;;;17.59;63.38;98966.16;5034482;28;1886;-61
2021/01/25 07:58:44;;;;;;;;;;;;;;;17.71;62.86;98963.97;5045697;28;1599;-62
2021/01/25 08:01:20;;;;;;;;;;;;;;;17.81;63.12;98961.94;5035960;28;1671;-62
2021/01/25 08:03:48;;;;;;;;;;;;;;;17.89;62.32;98948.56;5041595;28;1699;-62
2021/01/25 08:06:13;;;;;;;;;;;;;;;17.97;62.28;98971.78;5047882;28;1701;-64
2021/01/25 08:08:39;;;;;;;;;;;;;;;18.04;62.46;98980.75;5038234;28;1748;-61
2021/01/25 08:11:08;;;;;;;;;;;;;;;18.19;62.18;98980.88;5045462;28;1642;-61
2021/01/25 08:13:38;;;;;;;;;;;;;;;18.21;62.49;99000.25;5029218;28;1639;-64
2021/01/25 08:16:10;;;;;;;;;;;;;;;18.23;61.93;98986.72;5031417;28;1914;-64
2021/01/25 08:18:43;;;;;;;;;;;;;;;18.26;62.33;99008.63;5029467;28;1587;-61
2021/01/25 08:21:13;;;;;;;;;;;;;;;18.34;62.00;99026.44;5051809;28;1721;-63
2021/01/25 08:23:41;;;;;;;;;;;;;;;18.34;62.52;99012.25;5036472;28;1654;-64
2021/01/25 08:26:08;;;;;;;;;;;;;;;18.54;62.13;99013.47;5052590;28;1586;-62
2021/01/25 08:28:35;;;;;;;;;;;;;;;18.63;62.19;99015.13;5037104;28;1509;-61
2021/01/25 08:31:07;;;;;;;;;;;;;;;18.61;62.37;99038.56;5038464;28;1548;-64
2021/01/25 08:33:34;;;;;;;;;;;;;;;18.53;62.40;99056.50;5048873;28;1678;-61
2021/01/25 08:36:00;;;;;;;;;;;;;;;18.57;62.32;99064.00;5050035;28;1885;-64
2021/01/25 08:38:27;;;;;;;;;;;;;;;18.53;62.40;99072.56;5041554;28;1528;-64
2021/01/25 08:40:53;;;;;;;;;;;;;;;18.52;62.14;99074.38;5048614;28;1761;-65
2021/01/25 08:43:20;;;;;;;;;;;;;;;18.51;62.57;99078.09;5031686;28;1686;-65
2021/01/25 08:45:46;;;;;;;;;;;;;;;18.47;62.37;99098.19;5038452;28;746;-62
2021/01/25 08:48:12;;;;;;;;;;;;;;;18.50;62.16;99116.56;5052600;28;1485;-63
2021/01/25 08:50:37;;;;;;;;;;;;;;;18.47;62.59;99128.44;5057953;28;828;-66
2021/01/25 08:53:05;;;;;;;;;;;;;;;18.39;63.06;99120.44;5057946;28;737;-66
2021/01/25 08:55:40;;;;;;;;;;;;;;;18.41;62.97;99142.53;5035207;28;1890;-66
2021/01/25 08:58:24;;;;;;;;;;;;;;;18.37;63.02;99143.88;5038115;28;793;-63
2021/01/25 09:00:50;;;;;;;;;;;;;;;18.36;63.32;99160.09;5043095;28;1532;-64
2021/01/25 09:03:15;;;;;;;;;;;;;;;18.31;62.48;99170.50;5041397;28;1698;-63
2021/01/25 09:05:41;;;;;;;;;;;;;;;18.37;63.00;99175.97;5046520;28;1611;-60
2021/01/25 09:08:06;;;;;;;;;;;;;;;18.37;62.29;99183.19;5027783;28;1626;-61
2021/01/25 09:10:32;;;;;;;;;;;;;;;18.29;62.81;99190.22;5029380;28;1496;-61
2021/01/25 09:12:57;;;;;;;;;;;;;;;18.24;63.24;99213.13;5057113;28;1662;-63
2021/01/25 09:15:23;;;;;;;;;;;;;;;18.17;62.64;99218.31;5040731;28;1567;-64
2021/01/25 09:17:48;;;;;;;;;;;;;;;18.16;63.34;99216.63;5029245;28;1910;-64
2021/01/25 09:20:14;;;;;;;;;;;;;;;18.14;63.04;99229.34;5046459;28;1580;-64
2021/01/25 09:22:39;;;;;;;;;;;;;;;18.11;62.87;99237.72;5046433;28;1603;-64
2021/01/25 09:25:05;;;;;;;;;;;;;;;18.08;63.47;99267.47;5038453;28;1686;-62
2021/01/25 09:27:31;;;;;;;;;;;;;;;18.07;62.92;99257.78;5044254;28;1507;-64
2021/01/25 09:29:56;;;;;;;;;;;;;;;18.02;63.40;99257.44;5041512;28;1480;-64
2021/01/25 09:32:21;;;;;;;;;;;;;;;18.00;63.83;99262.09;5039537;28;1394;-64
2021/01/25 09:34:48;;;;;;;;;;;;;;;17.97;63.27;99251.75;5032298;28;1546;-63
2021/01/25 09:37:13;;;;;;;;;;;;;;;17.96;64.01;99268.78;5045555;28;1882;-62
2021/01/25 09:39:38;;;;;;;;;;;;;;;17.90;63.21;99280.97;5040992;28;1525;-62
2021/01/25 09:42:05;;;;;;;;;;;;;;;17.95;63.18;99285.84;5040228;28;1645;-62
2021/01/25 09:44:30;;;;;;;;;;;;;;;17.92;63.19;99291.53;5033148;28;1703;-65
2021/01/25 09:46:56;;;;;;;;;;;;;;;17.87;63.43;99303.56;5049203;28;1518;-64
2021/01/25 09:49:22;;;;;;;;;;;;;;;17.83;62.35;99318.25;5047391;28;1585;-61
2021/01/25 09:51:48;;;;;;;;;;;;;;;17.87;62.70;99345.50;5038221;28;1486;-63
2021/01/25 09:54:13;;;;;;;;;;;;;;;17.87;63.30;99351.69;5042106;28;1758;-63
2021/01/25 09:56:39;;;;;;;;;;;;;;;17.92;63.11;99342.34;5054049;28;1948;-71
2021/01/25 09:59:04;;;;;;;;;;;;;;;17.92;62.72;99363.72;5024669;28;1481;-68
2021/01/25 10:01:30;;;;;;;;;;;;;;;17.93;62.66;99366.25;5022385;28;1452;-60
2021/01/25 10:03:56;;;;;;;;;;;;;;;18.00;62.47;99371.78;5036426;28;1284;-75
2021/01/25 10:06:21;;;;;;;;;;;;;;;18.05;63.48;99388.19;5051732;28;1254;-62
2021/01/25 10:08:47;;;;;;;;;;;;;;;18.04;62.55;99410.56;5048712;28;1389;-62
2021/01/25 10:11:12;;;;;;;;;;;;;;;18.15;62.92;99391.56;5043408;28;1523;-68
2021/01/25 10:13:38;;;;;;;;;;;;;;;18.14;62.97;99408.59;5047830;28;1486;-62
2021/01/25 10:16:03;;;;;;;;;;;;;;;18.17;63.40;99431.53;5047743;28;1914;-68
2021/01/25 10:18:29;;;;;;;;;;;;;;;18.16;63.30;99438.69;5043184;28;1448;-69
2021/01/25 10:20:54;;;;;;;;;;;;;;;18.28;62.47;99425.84;5050962;28;1538;-61
2021/01/25 10:23:20;;;;;;;;;;;;;;;18.34;62.78;99449.28;5045038;28;1403;-60
2021/01/25 10:25:46;;;;;;;;;;;;;;;18.29;62.88;99463.16;5048556;28;1397;-68
2021/01/25 10:28:20;;;;;;;;;;;;;;;18.26;62.48;99468.84;5048416;28;1471;-61
2021/01/25 10:30:48;;;;;;;;;;;;;;;18.31;62.70;99480.91;5027543;28;1416;-69
2021/01/25 10:33:13;;;;;;;;;;;;;;;18.36;62.37;99481.25;5034254;28;1602;-71
2021/01/25 10:35:40;;;;;;;;;;;;;;;18.39;62.38;99483.59;5031510;28;1894;-60
2021/01/25 10:38:05;;;;;;;;;;;;;;;18.35;62.74;99463.53;5053471;28;1487;-59
2021/01/25 10:40:30;;;;;;;;;;;;;;;18.36;63.09;99473.22;5053821;28;1435;-58
2021/01/25 10:42:56;;;;;;;;;;;;;;;18.41;63.00;99490.47;5033176;28;1265;-65
2021/01/25 10:45:21;;;;;;;;;;;;;;;18.42;63.25;99488.63;5052486;28;1519;-62
2021/01/25 10:47:47;;;;;;;;;;;;;;;18.42;62.92;99475.22;5048324;28;1480;-60
2021/01/25 10:50:13;;;;;;;;;;;;;;;18.47;63.38;99475.59;5042958;28;1365;-61
2021/01/25 10:52:39;;;;;;;;;;;;;;;18.37;63.49;99481.09;5030261;28;1238;-60
2021/01/25 10:55:04;;;;;;;;;;;;;;;18.38;63.26;99487.28;5042211;28;1416;-62
2021/01/25 10:57:33;;;;;;;;;;;;;;;18.36;62.73;99462.50;5049871;28;1898;-62
2021/01/25 10:59:59;;;;;;;;;;;;;;;18.39;63.10;99497.00;5046567;28;1550;-61
2021/01/25 11:02:24;;;;;;;;;;;;;;;18.35;63.17;99476.91;5027566;28;1341;-60
2021/01/25 11:04:50;;;;;;;;;;;;;;;18.29;63.18;99470.34;5055544;28;1266;-61
2021/01/25 11:07:15;;;;;;;;;;;;;;;18.29;63.54;99465.84;5021735;28;1289;-61
2021/01/25 11:09:40;;;;;;;;;;;;;;;18.17;63.30;99448.41;5018162;28;1159;-61
2021/01/25 11:12:06;;;;;;;;;;;;;;;18.17;63.83;99455.59;5035280;28;1158;-60
2021/01/25 11:14:31;;;;;;;;;;;;;;;18.14;63.57;99464.78;5018045;28;1116;-62
2021/01/25 11:16:56;;;;;;;;;;;;;;;18.14;64.01;99470.13;5017892;28;1914;-61
2021/01/25 11:19:22;;;;;;;;;;;;;;;18.13;63.72;99467.63;5033514;28;1329;-60
2021/01/25 11:21:48;;;;;;;;;;;;;;;18.12;63.72;99465.94;5038001;28;1286;-61
2021/01/25 11:24:13;;;;;;;;;;;;;;;18.08;64.19;99460.06;5055931;28;1365;-61
2021/01/25 11:26:40;;;;;;;;;;;;;;;18.10;63.66;99468.78;5055123;28;823;-62
2021/01/25 11:29:06;;;;;;;;;;;;;;;18.07;63.54;99486.00;5046367;28;1084;-61
2021/01/25 11:31:32;;;;;;;;;;;;;;;18.10;64.03;99463.41;5039758;28;1254;-61
2021/01/25 11:33:57;;;;;;;;;;;;;;;18.07;63.87;99469.13;5067818;28;1353;-61
2021/01/25 11:36:23;;;;;;;;;;;;;;;18.08;63.74;99468.97;5045789;28;1951;-61
2021/01/25 11:38:48;;;;;;;;;;;;;;;18.09;63.92;99456.41;5074957;28;822;-60
2021/01/25 11:41:13;;;;;;;;;;;;;;;18.10;63.65;99442.03;5057308;28;1144;-61
2021/01/25 11:43:39;;;;;;;;;;;;;;;18.11;63.85;99457.09;5075038;28;859;-62
2021/01/25 11:46:04;;;;;;;;;;;;;;;18.10;63.91;99458.06;5068736;28;1482;-61
2021/01/25 11:48:29;;;;;;;;;;;;;;;18.08;63.85;99470.78;5067186;28;1250;-61
2021/01/25 11:50:55;;;;;;;;;;;;;;;18.05;63.25;99460.41;5074370;28;792;-61
2021/01/25 11:53:20;;;;;;;;;;;;;;;18.07;63.86;99471.78;5055652;28;1454;-61
2021/01/25 11:55:46;;;;;;;;;;;;;;;18.08;63.05;99476.13;5039774;28;1878;-61
2021/01/25 11:58:11;;;;;;;;;;;;;;;18.06;63.84;99472.78;5044961;28;1417;-60
2021/01/25 12:00:37;;;;;;;;;;;;;;;18.09;62.96;99480.50;5021027;28;1490;-61
2021/01/25 12:03:03;;;;;;;;;;;;;;;18.08;63.58;99471.63;5031785;28;1531;-61
2021/01/25 12:05:29;;;;;;;;;;;;;;;18.06;63.88;99462.06;5046367;28;1455;-60
2021/01/25 12:07:57;;;;;;;;;;;;;;;18.09;63.45;99465.25;5047046;28;1285;-60
2021/01/25 12:10:22;;;;;;;;;;;;;;;18.20;63.00;99464.13;5049325;28;1424;-60
2021/01/25 12:12:47;;;;;;;;;;;;;;;18.25;63.24;99471.69;5050179;28;1667;-62
2021/01/25 12:15:14;;;;;;;;;;;;;;;18.32;62.19;99469.19;5037929;28;1431;-61
2021/01/25 12:17:39;;;;;;;;;;;;;;;18.31;62.97;99475.56;5041923;28;1918;-60
2021/01/25 12:20:05;;;;;;;;;;;;;;;18.29;63.17;99455.13;5040747;28;1470;-60
2021/01/25 12:22:30;;;;;;;;;;;;;;;18.22;62.88;99448.78;5036162;28;1491;-61
2021/01/25 12:24:56;;;;;;;;;;;;;;;18.24;63.35;99454.81;5053471;28;1401;-60
2021/01/25 12:27:21;;;;;;;;;;;;;;;18.23;62.76;99452.28;5044737;28;1388;-60
2021/01/25 12:29:47;;;;;;;;;;;;;;;18.27;62.89;99454.47;5027903;28;1269;-61
2021/01/25 12:32:12;;;;;;;;;;;;;;;18.30;62.98;99461.31;5039274;28;1344;-61
2021/01/25 12:34:38;;;;;;;;;;;;;;;18.26;62.99;99463.50;5052123;28;1348;-61
2021/01/25 12:37:04;;;;;;;;;;;;;;;18.33;62.60;99473.56;5043736;28;1960;-62
2021/01/25 12:39:29;;;;;;;;;;;;;;;18.37;63.08;99481.09;5044363;28;1518;-60
2021/01/25 12:41:54;;;;;;;;;;;;;;;18.41;62.97;99493.13;5043072;28;1507;-60
2021/01/25 12:44:20;;;;;;;;;;;;;;;18.40;63.05;99493.28;5054528;28;755;-61
2021/01/25 12:46:49;;;;;;;;;;;;;;;18.43;63.39;99493.81;5054262;28;1233;-61
2021/01/25 12:49:15;;;;;;;;;;;;;;;18.39;63.33;99488.97;5048002;28;1470;-61
2021/01/25 12:51:41;;;;;;;;;;;;;;;18.35;63.56;99499.16;5045242;28;1562;-60
2021/01/25 12:54:06;;;;;;;;;;;;;;;18.37;63.75;99504.34;5016841;28;1373;-61